sensor_id;sensor_type;location;lat;lon;timestamp;P1;durP1;ratioP1;P2;durP2;ratioP2
15451;SDS011;7827;53.594;9.938;2023-04-01T00:01:14;15.52;;;8.50;;
15451;SDS011;7827;53.594;9.938;2023-04-01T00:03:43;10.88;;;8.00;;
15451;SDS011;7827;53.594;9.938;2023-04-01T00:06:12;13.73;;;7.93;;
15451;SDS011;7827;53.594;9.938;2023-04-01T00:08:43;16.05;;;8.18;;
15451;SDS011;7827;53.594;9.938;2023-04-01T00:11:12;13.60;;;7.95;;
15451;SDS011;7827;53.594;9.938;2023-04-01T00:13:42;15.77;;;8.73;;
15451;SDS011;7827;53.594;9.938;2023-04-01T00:16:11;15.40;;;8.27;;
15451;SDS011;7827;53.594;9.938;2023-04-01T00:18:49;16.35;;;9.30;;
15451;SDS011;7827;53.594;9.938;2023-04-01T00:21:19;15.95;;;9.48;;
15451;SDS011;7827;53.594;9.938;2023-04-01T00:23:48;14.07;;;8.93;;
15451;SDS011;7827;53.594;9.938;2023-04-01T00:26:17;14.77;;;9.25;;
15451;SDS011;7827;53.594;9.938;2023-04-01T00:28:48;18.60;;;9.75;;
15451;SDS011;7827;53.594;9.938;2023-04-01T00:31:17;15.23;;;8.82;;
15451;SDS011;7827;53.594;9.938;2023-04-01T00:33:45;17.83;;;9.25;;
15451;SDS011;7827;53.594;9.938;2023-04-01T00:36:16;16.23;;;9.68;;
15451;SDS011;7827;53.594;9.938;2023-04-01T00:38:47;14.77;;;9.55;;
15451;SDS011;7827;53.594;9.938;2023-04-01T00:41:17;18.60;;;9.40;;
15451;SDS011;7827;53.594;9.938;2023-04-01T00:43:48;16.40;;;9.10;;
15451;SDS011;7827;53.594;9.938;2023-04-01T00:46:20;17.13;;;9.38;;
15451;SDS011;7827;53.594;9.938;2023-04-01T00:48:49;17.25;;;9.52;;
15451;SDS011;7827;53.594;9.938;2023-04-01T00:51:23;14.20;;;9.40;;
15451;SDS011;7827;53.594;9.938;2023-04-01T00:53:57;17.23;;;10.00;;
15451;SDS011;7827;53.594;9.938;2023-04-01T00:56:30;16.25;;;10.02;;
15451;SDS011;7827;53.594;9.938;2023-04-01T00:59:04;18.48;;;10.20;;
15451;SDS011;7827;53.594;9.938;2023-04-01T01:01:38;14.63;;;9.32;;
15451;SDS011;7827;53.594;9.938;2023-04-01T01:04:18;17.65;;;10.88;;
15451;SDS011;7827;53.594;9.938;2023-04-01T01:06:57;17.95;;;10.95;;
15451;SDS011;7827;53.594;9.938;2023-04-01T01:09:46;14.98;;;10.60;;
15451;SDS011;7827;53.594;9.938;2023-04-01T01:12:29;17.50;;;10.52;;
15451;SDS011;7827;53.594;9.938;2023-04-01T01:15:07;15.88;;;10.85;;
15451;SDS011;7827;53.594;9.938;2023-04-01T01:17:48;13.77;;;10.55;;
15451;SDS011;7827;53.594;9.938;2023-04-01T01:20:35;17.15;;;10.40;;
15451;SDS011;7827;53.594;9.938;2023-04-01T01:26:38;16.88;;;10.15;;
15451;SDS011;7827;53.594;9.938;2023-04-01T01:29:30;16.98;;;9.57;;
15451;SDS011;7827;53.594;9.938;2023-04-01T01:32:20;18.02;;;9.88;;
15451;SDS011;7827;53.594;9.938;2023-04-01T01:35:13;16.83;;;9.90;;
15451;SDS011;7827;53.594;9.938;2023-04-01T01:37:49;19.85;;;10.07;;
15451;SDS011;7827;53.594;9.938;2023-04-01T01:40:23;16.92;;;10.15;;
15451;SDS011;7827;53.594;9.938;2023-04-01T01:42:56;14.07;;;9.77;;
15451;SDS011;7827;53.594;9.938;2023-04-01T01:45:27;14.65;;;9.57;;
15451;SDS011;7827;53.594;9.938;2023-04-01T01:48:01;16.35;;;10.05;;
15451;SDS011;7827;53.594;9.938;2023-04-01T01:50:34;14.80;;;8.98;;
15451;SDS011;7827;53.594;9.938;2023-04-01T01:53:04;19.38;;;9.52;;
15451;SDS011;7827;53.594;9.938;2023-04-01T01:55:35;16.15;;;8.82;;
15451;SDS011;7827;53.594;9.938;2023-04-01T01:58:09;14.43;;;9.20;;
15451;SDS011;7827;53.594;9.938;2023-04-01T02:00:48;11.27;;;8.18;;
15451;SDS011;7827;53.594;9.938;2023-04-01T02:03:21;13.63;;;8.73;;
15451;SDS011;7827;53.594;9.938;2023-04-01T02:05:55;16.25;;;9.00;;
15451;SDS011;7827;53.594;9.938;2023-04-01T02:08:29;14.93;;;8.82;;
15451;SDS011;7827;53.594;9.938;2023-04-01T02:11:05;11.73;;;9.13;;
15451;SDS011;7827;53.594;9.938;2023-04-01T02:13:40;12.73;;;9.02;;
15451;SDS011;7827;53.594;9.938;2023-04-01T02:16:16;12.30;;;8.00;;
15451;SDS011;7827;53.594;9.938;2023-04-01T02:18:53;13.15;;;8.57;;
15451;SDS011;7827;53.594;9.938;2023-04-01T02:21:27;15.30;;;8.93;;
15451;SDS011;7827;53.594;9.938;2023-04-01T02:24:00;14.40;;;8.55;;
15451;SDS011;7827;53.594;9.938;2023-04-01T02:26:32;17.20;;;8.55;;
15451;SDS011;7827;53.594;9.938;2023-04-01T02:29:03;12.02;;;7.35;;
15451;SDS011;7827;53.594;9.938;2023-04-01T02:31:35;12.82;;;7.90;;
15451;SDS011;7827;53.594;9.938;2023-04-01T02:34:04;20.05;;;9.48;;
15451;SDS011;7827;53.594;9.938;2023-04-01T02:36:34;10.07;;;7.80;;
15451;SDS011;7827;53.594;9.938;2023-04-01T02:39:03;12.32;;;7.53;;
15451;SDS011;7827;53.594;9.938;2023-04-01T02:41:38;13.20;;;8.43;;
15451;SDS011;7827;53.594;9.938;2023-04-01T02:44:07;12.10;;;8.55;;
15451;SDS011;7827;53.594;9.938;2023-04-01T02:46:36;14.40;;;8.93;;
15451;SDS011;7827;53.594;9.938;2023-04-01T02:49:05;13.75;;;8.20;;
15451;SDS011;7827;53.594;9.938;2023-04-01T02:51:35;16.38;;;8.75;;
15451;SDS011;7827;53.594;9.938;2023-04-01T02:54:04;11.43;;;7.90;;
15451;SDS011;7827;53.594;9.938;2023-04-01T02:56:32;14.00;;;8.93;;
15451;SDS011;7827;53.594;9.938;2023-04-01T02:59:01;16.55;;;9.07;;
15451;SDS011;7827;53.594;9.938;2023-04-01T03:01:29;16.27;;;8.52;;
15451;SDS011;7827;53.594;9.938;2023-04-01T03:03:58;12.43;;;8.43;;
15451;SDS011;7827;53.594;9.938;2023-04-01T03:06:26;11.05;;;8.10;;
15451;SDS011;7827;53.594;9.938;2023-04-01T03:08:55;12.95;;;8.98;;
15451;SDS011;7827;53.594;9.938;2023-04-01T03:11:25;15.80;;;8.88;;
15451;SDS011;7827;53.594;9.938;2023-04-01T03:13:53;12.65;;;8.52;;
15451;SDS011;7827;53.594;9.938;2023-04-01T03:16:22;14.55;;;9.52;;
15451;SDS011;7827;53.594;9.938;2023-04-01T03:18:50;12.45;;;8.70;;
15451;SDS011;7827;53.594;9.938;2023-04-01T03:21:20;14.55;;;9.93;;
15451;SDS011;7827;53.594;9.938;2023-04-01T03:23:51;15.43;;;9.57;;
15451;SDS011;7827;53.594;9.938;2023-04-01T03:26:21;13.75;;;8.80;;
15451;SDS011;7827;53.594;9.938;2023-04-01T03:28:50;16.05;;;8.98;;
15451;SDS011;7827;53.594;9.938;2023-04-01T03:31:18;16.92;;;10.20;;
15451;SDS011;7827;53.594;9.938;2023-04-01T03:33:52;15.18;;;9.07;;
15451;SDS011;7827;53.594;9.938;2023-04-01T03:36:21;17.27;;;9.15;;
15451;SDS011;7827;53.594;9.938;2023-04-01T03:38:49;16.10;;;9.20;;
15451;SDS011;7827;53.594;9.938;2023-04-01T03:41:25;15.20;;;9.07;;
15451;SDS011;7827;53.594;9.938;2023-04-01T03:43:54;12.80;;;8.60;;
15451;SDS011;7827;53.594;9.938;2023-04-01T03:46:22;14.07;;;8.45;;
15451;SDS011;7827;53.594;9.938;2023-04-01T03:48:51;14.18;;;9.00;;
15451;SDS011;7827;53.594;9.938;2023-04-01T03:51:19;15.98;;;9.15;;
15451;SDS011;7827;53.594;9.938;2023-04-01T03:53:48;12.75;;;8.90;;
15451;SDS011;7827;53.594;9.938;2023-04-01T03:56:16;16.23;;;8.95;;
15451;SDS011;7827;53.594;9.938;2023-04-01T03:58:46;14.43;;;8.98;;
15451;SDS011;7827;53.594;9.938;2023-04-01T04:01:15;13.07;;;8.82;;
15451;SDS011;7827;53.594;9.938;2023-04-01T04:03:48;13.13;;;8.85;;
15451;SDS011;7827;53.594;9.938;2023-04-01T04:06:19;15.60;;;9.02;;
15451;SDS011;7827;53.594;9.938;2023-04-01T04:08:47;13.18;;;8.52;;
15451;SDS011;7827;53.594;9.938;2023-04-01T04:11:16;17.75;;;8.77;;
15451;SDS011;7827;53.594;9.938;2023-04-01T04:13:51;15.88;;;9.65;;
15451;SDS011;7827;53.594;9.938;2023-04-01T04:16:22;14.30;;;9.35;;
15451;SDS011;7827;53.594;9.938;2023-04-01T04:18:57;14.10;;;10.55;;
15451;SDS011;7827;53.594;9.938;2023-04-01T04:21:26;15.23;;;9.27;;
15451;SDS011;7827;53.594;9.938;2023-04-01T04:23:54;16.95;;;9.35;;
15451;SDS011;7827;53.594;9.938;2023-04-01T04:26:23;17.48;;;9.23;;
15451;SDS011;7827;53.594;9.938;2023-04-01T04:29:00;15.48;;;9.25;;
15451;SDS011;7827;53.594;9.938;2023-04-01T04:31:30;13.40;;;8.82;;
15451;SDS011;7827;53.594;9.938;2023-04-01T04:33:59;16.40;;;9.57;;
15451;SDS011;7827;53.594;9.938;2023-04-01T04:36:31;14.70;;;9.55;;
15451;SDS011;7827;53.594;9.938;2023-04-01T04:39:00;17.98;;;12.90;;
15451;SDS011;7827;53.594;9.938;2023-04-01T04:41:31;13.05;;;10.02;;
15451;SDS011;7827;53.594;9.938;2023-04-01T04:44:04;15.20;;;9.63;;
15451;SDS011;7827;53.594;9.938;2023-04-01T04:46:32;15.30;;;9.65;;
15451;SDS011;7827;53.594;9.938;2023-04-01T04:49:10;14.15;;;9.70;;
15451;SDS011;7827;53.594;9.938;2023-04-01T04:51:38;14.90;;;10.05;;
15451;SDS011;7827;53.594;9.938;2023-04-01T04:54:07;16.80;;;10.15;;
15451;SDS011;7827;53.594;9.938;2023-04-01T04:57:02;15.68;;;10.13;;
15451;SDS011;7827;53.594;9.938;2023-04-01T04:59:36;18.33;;;10.07;;
15451;SDS011;7827;53.594;9.938;2023-04-01T05:02:10;14.57;;;9.85;;
15451;SDS011;7827;53.594;9.938;2023-04-01T05:04:39;12.75;;;10.15;;
15451;SDS011;7827;53.594;9.938;2023-04-01T05:07:09;13.65;;;10.80;;
15451;SDS011;7827;53.594;9.938;2023-04-01T05:09:37;16.00;;;10.95;;
15451;SDS011;7827;53.594;9.938;2023-04-01T05:12:06;14.70;;;9.90;;
15451;SDS011;7827;53.594;9.938;2023-04-01T05:15:02;16.38;;;10.23;;
15451;SDS011;7827;53.594;9.938;2023-04-01T05:17:32;14.68;;;10.30;;
15451;SDS011;7827;53.594;9.938;2023-04-01T05:20:02;10.52;;;5.40;;
15451;SDS011;7827;53.594;9.938;2023-04-01T05:22:31;4.63;;;3.20;;
15451;SDS011;7827;53.594;9.938;2023-04-01T05:24:59;3.15;;;2.25;;
15451;SDS011;7827;53.594;9.938;2023-04-01T05:27:28;3.00;;;2.10;;
15451;SDS011;7827;53.594;9.938;2023-04-01T05:29:56;1.97;;;1.87;;
15451;SDS011;7827;53.594;9.938;2023-04-01T05:32:49;2.90;;;1.40;;
15451;SDS011;7827;53.594;9.938;2023-04-01T05:35:18;3.93;;;3.10;;
15451;SDS011;7827;53.594;9.938;2023-04-01T05:37:47;1.40;;;1.30;;
15451;SDS011;7827;53.594;9.938;2023-04-01T05:40:15;2.33;;;1.70;;
15451;SDS011;7827;53.594;9.938;2023-04-01T05:42:44;1.80;;;1.70;;
15451;SDS011;7827;53.594;9.938;2023-04-01T05:45:14;1.60;;;1.50;;
15451;SDS011;7827;53.594;9.938;2023-04-01T05:47:55;1.73;;;1.60;;
15451;SDS011;7827;53.594;9.938;2023-04-01T05:50:24;1.67;;;1.57;;
15451;SDS011;7827;53.594;9.938;2023-04-01T05:52:52;1.80;;;1.70;;
15451;SDS011;7827;53.594;9.938;2023-04-01T05:55:21;2.17;;;1.60;;
15451;SDS011;7827;53.594;9.938;2023-04-01T05:57:50;2.30;;;2.07;;
15451;SDS011;7827;53.594;9.938;2023-04-01T06:00:19;1.97;;;1.60;;
15451;SDS011;7827;53.594;9.938;2023-04-01T06:02:48;2.27;;;1.60;;
15451;SDS011;7827;53.594;9.938;2023-04-01T06:05:20;1.40;;;1.30;;
15451;SDS011;7827;53.594;9.938;2023-04-01T06:07:51;1.70;;;1.60;;
15451;SDS011;7827;53.594;9.938;2023-04-01T06:10:37;2.17;;;1.97;;
15451;SDS011;7827;53.594;9.938;2023-04-01T06:13:22;2.00;;;1.67;;
15451;SDS011;7827;53.594;9.938;2023-04-01T06:16:07;1.90;;;1.70;;
15451;SDS011;7827;53.594;9.938;2023-04-01T06:18:49;1.67;;;1.57;;
15451;SDS011;7827;53.594;9.938;2023-04-01T06:21:40;3.00;;;1.73;;
15451;SDS011;7827;53.594;9.938;2023-04-01T06:24:33;3.57;;;1.83;;
15451;SDS011;7827;53.594;9.938;2023-04-01T06:27:23;3.57;;;1.77;;
15451;SDS011;7827;53.594;9.938;2023-04-01T06:30:20;1.83;;;1.70;;
15451;SDS011;7827;53.594;9.938;2023-04-01T06:33:06;2.00;;;1.80;;
15451;SDS011;7827;53.594;9.938;2023-04-01T06:35:51;3.20;;;1.63;;
15451;SDS011;7827;53.594;9.938;2023-04-01T06:38:46;3.13;;;2.10;;
15451;SDS011;7827;53.594;9.938;2023-04-01T06:44:50;1.90;;;1.30;;
15451;SDS011;7827;53.594;9.938;2023-04-01T06:48:23;1.67;;;1.53;;
15451;SDS011;7827;53.594;9.938;2023-04-01T06:51:43;2.20;;;1.90;;
15451;SDS011;7827;53.594;9.938;2023-04-01T06:54:47;1.60;;;1.50;;
15451;SDS011;7827;53.594;9.938;2023-04-01T06:57:40;2.43;;;1.50;;
15451;SDS011;7827;53.594;9.938;2023-04-01T07:00:13;2.00;;;1.60;;
15451;SDS011;7827;53.594;9.938;2023-04-01T07:02:53;2.50;;;1.60;;
15451;SDS011;7827;53.594;9.938;2023-04-01T07:05:33;1.83;;;1.73;;
15451;SDS011;7827;53.594;9.938;2023-04-01T07:08:03;2.50;;;1.50;;
15451;SDS011;7827;53.594;9.938;2023-04-01T07:10:41;1.67;;;1.57;;
15451;SDS011;7827;53.594;9.938;2023-04-01T07:13:34;1.30;;;1.20;;
15451;SDS011;7827;53.594;9.938;2023-04-01T07:16:17;1.33;;;1.20;;
15451;SDS011;7827;53.594;9.938;2023-04-01T07:18:52;1.23;;;1.13;;
15451;SDS011;7827;53.594;9.938;2023-04-01T07:21:39;1.97;;;1.47;;
15451;SDS011;7827;53.594;9.938;2023-04-01T07:24:22;2.63;;;1.87;;
15451;SDS011;7827;53.594;9.938;2023-04-01T07:27:05;1.93;;;1.47;;
15451;SDS011;7827;53.594;9.938;2023-04-01T07:29:38;1.83;;;1.60;;
15451;SDS011;7827;53.594;9.938;2023-04-01T07:32:16;1.87;;;1.40;;
15451;SDS011;7827;53.594;9.938;2023-04-01T07:35:00;2.63;;;1.50;;
15451;SDS011;7827;53.594;9.938;2023-04-01T07:37:46;2.93;;;1.43;;
15451;SDS011;7827;53.594;9.938;2023-04-01T07:40:40;2.53;;;2.20;;
15451;SDS011;7827;53.594;9.938;2023-04-01T07:46:32;1.43;;;1.33;;
15451;SDS011;7827;53.594;9.938;2023-04-01T07:49:20;2.57;;;1.67;;
15451;SDS011;7827;53.594;9.938;2023-04-01T07:51:59;2.03;;;1.67;;
15451;SDS011;7827;53.594;9.938;2023-04-01T07:54:39;1.67;;;1.57;;
15451;SDS011;7827;53.594;9.938;2023-04-01T07:57:18;2.27;;;1.60;;
15451;SDS011;7827;53.594;9.938;2023-04-01T07:59:57;1.60;;;1.50;;
15451;SDS011;7827;53.594;9.938;2023-04-01T08:02:59;2.10;;;1.67;;
15451;SDS011;7827;53.594;9.938;2023-04-01T08:05:49;1.80;;;1.57;;
15451;SDS011;7827;53.594;9.938;2023-04-01T08:08:28;1.70;;;1.50;;
15451;SDS011;7827;53.594;9.938;2023-04-01T08:11:46;1.60;;;1.50;;
15451;SDS011;7827;53.594;9.938;2023-04-01T08:15:08;1.93;;;1.40;;
15451;SDS011;7827;53.594;9.938;2023-04-01T08:18:02;2.70;;;1.50;;
15451;SDS011;7827;53.594;9.938;2023-04-01T08:20:44;2.30;;;1.50;;
15451;SDS011;7827;53.594;9.938;2023-04-01T08:23:19;1.80;;;1.40;;
15451;SDS011;7827;53.594;9.938;2023-04-01T08:25:54;2.07;;;1.70;;
15451;SDS011;7827;53.594;9.938;2023-04-01T08:28:36;4.73;;;3.43;;
15451;SDS011;7827;53.594;9.938;2023-04-01T08:31:13;2.97;;;2.50;;
15451;SDS011;7827;53.594;9.938;2023-04-01T08:33:50;2.13;;;1.90;;
15451;SDS011;7827;53.594;9.938;2023-04-01T08:36:23;1.87;;;1.70;;
15451;SDS011;7827;53.594;9.938;2023-04-01T08:39:09;1.90;;;1.40;;
15451;SDS011;7827;53.594;9.938;2023-04-01T08:41:51;1.20;;;1.10;;
15451;SDS011;7827;53.594;9.938;2023-04-01T08:45:10;2.80;;;1.70;;
15451;SDS011;7827;53.594;9.938;2023-04-01T08:48:07;1.63;;;1.53;;
15451;SDS011;7827;53.594;9.938;2023-04-01T08:51:26;1.93;;;1.33;;
15451;SDS011;7827;53.594;9.938;2023-04-01T08:54:38;1.83;;;1.40;;
15451;SDS011;7827;53.594;9.938;2023-04-01T08:58:02;1.60;;;1.50;;
15451;SDS011;7827;53.594;9.938;2023-04-01T09:01:26;1.40;;;1.30;;
15451;SDS011;7827;53.594;9.938;2023-04-01T09:05:00;1.40;;;1.30;;
15451;SDS011;7827;53.594;9.938;2023-04-01T09:07:51;1.60;;;1.50;;
15451;SDS011;7827;53.594;9.938;2023-04-01T09:10:39;1.70;;;1.60;;
15451;SDS011;7827;53.594;9.938;2023-04-01T09:13:59;1.83;;;1.43;;
15451;SDS011;7827;53.594;9.938;2023-04-01T09:17:20;3.10;;;1.47;;
15451;SDS011;7827;53.594;9.938;2023-04-01T09:20:26;1.50;;;1.40;;
15451;SDS011;7827;53.594;9.938;2023-04-01T09:23:20;2.57;;;1.20;;
15451;SDS011;7827;53.594;9.938;2023-04-01T09:26:16;1.47;;;1.37;;
15451;SDS011;7827;53.594;9.938;2023-04-01T09:29:05;1.53;;;1.40;;
15451;SDS011;7827;53.594;9.938;2023-04-01T09:32:02;1.83;;;1.40;;
15451;SDS011;7827;53.594;9.938;2023-04-01T09:35:07;2.13;;;1.60;;
15451;SDS011;7827;53.594;9.938;2023-04-01T09:37:53;2.93;;;2.00;;
15451;SDS011;7827;53.594;9.938;2023-04-01T09:40:42;1.60;;;1.40;;
15451;SDS011;7827;53.594;9.938;2023-04-01T09:43:44;2.73;;;1.60;;
15451;SDS011;7827;53.594;9.938;2023-04-01T09:46:41;1.70;;;1.60;;
15451;SDS011;7827;53.594;9.938;2023-04-01T09:49:36;1.40;;;1.30;;
15451;SDS011;7827;53.594;9.938;2023-04-01T09:52:26;1.60;;;1.50;;
15451;SDS011;7827;53.594;9.938;2023-04-01T09:59:07;2.10;;;1.50;;
15451;SDS011;7827;53.594;9.938;2023-04-01T10:02:50;1.60;;;1.50;;
15451;SDS011;7827;53.594;9.938;2023-04-01T10:16:34;1.30;;;1.20;;
15451;SDS011;7827;53.594;9.938;2023-04-01T10:23:24;1.50;;;1.40;;
15451;SDS011;7827;53.594;9.938;2023-04-01T10:30:20;1.57;;;1.20;;
15451;SDS011;7827;53.594;9.938;2023-04-01T10:36:52;1.33;;;1.23;;
15451;SDS011;7827;53.594;9.938;2023-04-01T10:39:48;1.40;;;1.20;;
15451;SDS011;7827;53.594;9.938;2023-04-01T10:43:15;1.57;;;1.40;;
15451;SDS011;7827;53.594;9.938;2023-04-01T10:46:19;1.50;;;1.40;;
15451;SDS011;7827;53.594;9.938;2023-04-01T10:52:49;1.33;;;1.10;;
15451;SDS011;7827;53.594;9.938;2023-04-01T10:59:51;1.50;;;1.40;;
15451;SDS011;7827;53.594;9.938;2023-04-01T11:03:28;1.30;;;1.23;;
15451;SDS011;7827;53.594;9.938;2023-04-01T11:07:22;2.00;;;1.53;;
15451;SDS011;7827;53.594;9.938;2023-04-01T11:10:49;1.40;;;1.30;;
15451;SDS011;7827;53.594;9.938;2023-04-01T11:14:01;1.10;;;1.10;;
15451;SDS011;7827;53.594;9.938;2023-04-01T11:23:54;2.57;;;1.33;;
15451;SDS011;7827;53.594;9.938;2023-04-01T11:27:07;1.73;;;1.60;;
15451;SDS011;7827;53.594;9.938;2023-04-01T11:30:14;2.83;;;1.60;;
15451;SDS011;7827;53.594;9.938;2023-04-01T11:32:58;2.10;;;1.57;;
15451;SDS011;7827;53.594;9.938;2023-04-01T11:35:37;2.67;;;1.60;;
15451;SDS011;7827;53.594;9.938;2023-04-01T11:38:27;2.87;;;1.73;;
15451;SDS011;7827;53.594;9.938;2023-04-01T11:41:30;2.83;;;1.70;;
15451;SDS011;7827;53.594;9.938;2023-04-01T11:44:39;2.37;;;2.03;;
15451;SDS011;7827;53.594;9.938;2023-04-01T11:47:44;2.40;;;2.20;;
15451;SDS011;7827;53.594;9.938;2023-04-01T11:51:01;5.53;;;2.40;;
15451;SDS011;7827;53.594;9.938;2023-04-01T11:53:57;3.00;;;2.50;;
15451;SDS011;7827;53.594;9.938;2023-04-01T11:56:42;4.00;;;2.47;;
15451;SDS011;7827;53.594;9.938;2023-04-01T11:59:33;3.97;;;2.33;;
15451;SDS011;7827;53.594;9.938;2023-04-01T12:02:29;3.63;;;2.50;;
15451;SDS011;7827;53.594;9.938;2023-04-01T12:08:13;4.40;;;2.80;;
15451;SDS011;7827;53.594;9.938;2023-04-01T12:10:58;3.93;;;3.30;;
15451;SDS011;7827;53.594;9.938;2023-04-01T12:13:39;3.97;;;3.43;;
15451;SDS011;7827;53.594;9.938;2023-04-01T12:16:20;4.50;;;4.03;;
15451;SDS011;7827;53.594;9.938;2023-04-01T12:19:05;4.27;;;3.50;;
15451;SDS011;7827;53.594;9.938;2023-04-01T12:21:45;5.53;;;3.97;;
15451;SDS011;7827;53.594;9.938;2023-04-01T12:24:42;6.03;;;4.20;;
15451;SDS011;7827;53.594;9.938;2023-04-01T12:27:29;5.00;;;3.80;;
15451;SDS011;7827;53.594;9.938;2023-04-01T12:30:17;6.13;;;3.83;;
15451;SDS011;7827;53.594;9.938;2023-04-01T12:33:18;3.57;;;3.20;;
15451;SDS011;7827;53.594;9.938;2023-04-01T12:39:24;9.10;;;3.87;;
15451;SDS011;7827;53.594;9.938;2023-04-01T12:42:37;4.47;;;3.30;;
15451;SDS011;7827;53.594;9.938;2023-04-01T12:45:30;5.30;;;3.87;;
15451;SDS011;7827;53.594;9.938;2023-04-01T12:54:31;6.57;;;4.10;;
15451;SDS011;7827;53.594;9.938;2023-04-01T12:57:41;3.90;;;3.33;;
15451;SDS011;7827;53.594;9.938;2023-04-01T13:00:48;6.10;;;4.23;;
15451;SDS011;7827;53.594;9.938;2023-04-01T13:03:37;6.57;;;3.50;;
15451;SDS011;7827;53.594;9.938;2023-04-01T13:06:41;5.30;;;3.90;;
15451;SDS011;7827;53.594;9.938;2023-04-01T13:09:31;6.63;;;3.73;;
15451;SDS011;7827;53.594;9.938;2023-04-01T13:12:23;7.83;;;4.10;;
15451;SDS011;7827;53.594;9.938;2023-04-01T13:15:31;7.10;;;4.20;;
15451;SDS011;7827;53.594;9.938;2023-04-01T13:18:15;5.73;;;4.37;;
15451;SDS011;7827;53.594;9.938;2023-04-01T13:20:58;6.87;;;4.33;;
15451;SDS011;7827;53.594;9.938;2023-04-01T13:23:39;6.57;;;4.80;;
15451;SDS011;7827;53.594;9.938;2023-04-01T13:26:29;7.57;;;4.30;;
15451;SDS011;7827;53.594;9.938;2023-04-01T13:29:06;5.83;;;3.73;;
15451;SDS011;7827;53.594;9.938;2023-04-01T13:31:46;5.33;;;3.90;;
15451;SDS011;7827;53.594;9.938;2023-04-01T13:34:32;3.00;;;2.43;;
15451;SDS011;7827;53.594;9.938;2023-04-01T13:37:24;4.90;;;3.13;;
15451;SDS011;7827;53.594;9.938;2023-04-01T13:40:21;4.63;;;3.10;;
15451;SDS011;7827;53.594;9.938;2023-04-01T13:43:04;5.50;;;3.50;;
15451;SDS011;7827;53.594;9.938;2023-04-01T13:45:46;7.50;;;3.83;;
15451;SDS011;7827;53.594;9.938;2023-04-01T13:48:50;6.63;;;4.43;;
15451;SDS011;7827;53.594;9.938;2023-04-01T13:52:05;7.43;;;4.37;;
15451;SDS011;7827;53.594;9.938;2023-04-01T13:55:16;6.53;;;4.60;;
15451;SDS011;7827;53.594;9.938;2023-04-01T14:01:28;5.37;;;4.30;;
15451;SDS011;7827;53.594;9.938;2023-04-01T14:07:31;5.77;;;3.67;;
15451;SDS011;7827;53.594;9.938;2023-04-01T14:10:18;6.47;;;4.33;;
15451;SDS011;7827;53.594;9.938;2023-04-01T14:13:00;8.60;;;4.53;;
15451;SDS011;7827;53.594;9.938;2023-04-01T14:15:42;6.47;;;4.60;;
15451;SDS011;7827;53.594;9.938;2023-04-01T14:18:41;6.00;;;3.63;;
15451;SDS011;7827;53.594;9.938;2023-04-01T14:21:27;9.23;;;4.70;;
15451;SDS011;7827;53.594;9.938;2023-04-01T14:24:14;9.80;;;5.37;;
15451;SDS011;7827;53.594;9.938;2023-04-01T14:27:09;8.70;;;5.60;;
15451;SDS011;7827;53.594;9.938;2023-04-01T14:30:08;7.63;;;5.93;;
15451;SDS011;7827;53.594;9.938;2023-04-01T14:33:06;6.37;;;4.87;;
15451;SDS011;7827;53.594;9.938;2023-04-01T14:36:01;7.10;;;4.97;;
15451;SDS011;7827;53.594;9.938;2023-04-01T14:38:59;6.63;;;4.27;;
15451;SDS011;7827;53.594;9.938;2023-04-01T14:41:44;6.83;;;4.63;;
15451;SDS011;7827;53.594;9.938;2023-04-01T14:44:29;8.73;;;4.83;;
15451;SDS011;7827;53.594;9.938;2023-04-01T14:47:46;9.77;;;5.63;;
15451;SDS011;7827;53.594;9.938;2023-04-01T14:50:20;10.23;;;5.70;;
15451;SDS011;7827;53.594;9.938;2023-04-01T14:52:57;11.90;;;6.50;;
15451;SDS011;7827;53.594;9.938;2023-04-01T14:55:44;7.23;;;4.80;;
15451;SDS011;7827;53.594;9.938;2023-04-01T14:58:18;8.63;;;5.30;;
15451;SDS011;7827;53.594;9.938;2023-04-01T15:01:07;12.20;;;6.53;;
15451;SDS011;7827;53.594;9.938;2023-04-01T15:03:53;7.87;;;5.57;;
15451;SDS011;7827;53.594;9.938;2023-04-01T15:06:37;8.63;;;5.53;;
15451;SDS011;7827;53.594;9.938;2023-04-01T15:09:35;9.47;;;6.13;;
15451;SDS011;7827;53.594;9.938;2023-04-01T15:12:17;8.37;;;4.97;;
15451;SDS011;7827;53.594;9.938;2023-04-01T15:15:02;10.07;;;5.63;;
15451;SDS011;7827;53.594;9.938;2023-04-01T15:17:59;7.77;;;4.97;;
15451;SDS011;7827;53.594;9.938;2023-04-01T15:20:41;9.10;;;6.03;;
15451;SDS011;7827;53.594;9.938;2023-04-01T15:23:24;7.73;;;4.93;;
15451;SDS011;7827;53.594;9.938;2023-04-01T15:29:39;9.30;;;4.53;;
15451;SDS011;7827;53.594;9.938;2023-04-01T15:32:37;11.00;;;5.77;;
15451;SDS011;7827;53.594;9.938;2023-04-01T15:35:19;12.13;;;5.83;;
15451;SDS011;7827;53.594;9.938;2023-04-01T15:38:03;7.17;;;5.47;;
15451;SDS011;7827;53.594;9.938;2023-04-01T15:40:42;11.40;;;6.63;;
15451;SDS011;7827;53.594;9.938;2023-04-01T15:43:22;8.00;;;6.17;;
15451;SDS011;7827;53.594;9.938;2023-04-01T15:49:20;10.97;;;6.30;;
15451;SDS011;7827;53.594;9.938;2023-04-01T15:52:07;12.10;;;6.60;;
15451;SDS011;7827;53.594;9.938;2023-04-01T15:54:57;9.93;;;6.57;;
15451;SDS011;7827;53.594;9.938;2023-04-01T15:57:51;13.50;;;6.20;;
15451;SDS011;7827;53.594;9.938;2023-04-01T16:00:46;15.57;;;6.37;;
15451;SDS011;7827;53.594;9.938;2023-04-01T16:03:30;13.67;;;7.30;;
15451;SDS011;7827;53.594;9.938;2023-04-01T16:06:11;16.80;;;6.97;;
15451;SDS011;7827;53.594;9.938;2023-04-01T16:09:06;13.33;;;6.60;;
15451;SDS011;7827;53.594;9.938;2023-04-01T16:11:53;12.30;;;7.50;;
15451;SDS011;7827;53.594;9.938;2023-04-01T16:14:37;11.30;;;8.10;;
15451;SDS011;7827;53.594;9.938;2023-04-01T16:17:27;13.57;;;7.73;;
15451;SDS011;7827;53.594;9.938;2023-04-01T16:20:18;13.83;;;7.30;;
15451;SDS011;7827;53.594;9.938;2023-04-01T16:22:53;13.10;;;6.80;;
15451;SDS011;7827;53.594;9.938;2023-04-01T16:25:31;6.67;;;4.93;;
15451;SDS011;7827;53.594;9.938;2023-04-01T16:28:13;13.30;;;6.67;;
15451;SDS011;7827;53.594;9.938;2023-04-01T16:30:55;8.07;;;5.80;;
15451;SDS011;7827;53.594;9.938;2023-04-01T16:33:34;7.93;;;6.03;;
15451;SDS011;7827;53.594;9.938;2023-04-01T16:36:13;11.13;;;6.50;;
15451;SDS011;7827;53.594;9.938;2023-04-01T16:39:05;9.07;;;7.07;;
15451;SDS011;7827;53.594;9.938;2023-04-01T16:41:57;10.87;;;6.67;;
15451;SDS011;7827;53.594;9.938;2023-04-01T16:44:46;10.90;;;6.70;;
15451;SDS011;7827;53.594;9.938;2023-04-01T16:47:23;12.73;;;6.47;;
15451;SDS011;7827;53.594;9.938;2023-04-01T16:50:05;11.33;;;6.60;;
15451;SDS011;7827;53.594;9.938;2023-04-01T16:52:47;13.23;;;6.50;;
15451;SDS011;7827;53.594;9.938;2023-04-01T16:55:42;16.40;;;6.70;;
15451;SDS011;7827;53.594;9.938;2023-04-01T16:58:19;13.47;;;7.20;;
15451;SDS011;7827;53.594;9.938;2023-04-01T17:00:55;13.10;;;6.83;;
15451;SDS011;7827;53.594;9.938;2023-04-01T17:03:33;13.27;;;6.37;;
15451;SDS011;7827;53.594;9.938;2023-04-01T17:06:13;12.53;;;7.00;;
15451;SDS011;7827;53.594;9.938;2023-04-01T17:09:07;11.50;;;6.10;;
15451;SDS011;7827;53.594;9.938;2023-04-01T17:11:58;10.80;;;6.03;;
15451;SDS011;7827;53.594;9.938;2023-04-01T17:14:40;11.97;;;6.13;;
15451;SDS011;7827;53.594;9.938;2023-04-01T17:17:24;4.90;;;3.67;;
15451;SDS011;7827;53.594;9.938;2023-04-01T17:20:06;8.23;;;4.40;;
15451;SDS011;7827;53.594;9.938;2023-04-01T17:22:57;5.93;;;3.47;;
15451;SDS011;7827;53.594;9.938;2023-04-01T17:25:38;8.23;;;4.30;;
15451;SDS011;7827;53.594;9.938;2023-04-01T17:28:23;8.33;;;4.67;;
15451;SDS011;7827;53.594;9.938;2023-04-01T17:31:06;11.20;;;6.57;;
15451;SDS011;7827;53.594;9.938;2023-04-01T17:33:49;9.00;;;5.40;;
15451;SDS011;7827;53.594;9.938;2023-04-01T17:36:48;8.40;;;4.17;;
15451;SDS011;7827;53.594;9.938;2023-04-01T17:39:40;8.57;;;5.17;;
15451;SDS011;7827;53.594;9.938;2023-04-01T17:42:26;7.27;;;4.70;;
15451;SDS011;7827;53.594;9.938;2023-04-01T17:45:09;6.53;;;4.67;;
15451;SDS011;7827;53.594;9.938;2023-04-01T17:47:59;7.20;;;4.57;;
15451;SDS011;7827;53.594;9.938;2023-04-01T17:50:44;9.57;;;5.43;;
15451;SDS011;7827;53.594;9.938;2023-04-01T17:53:35;11.43;;;5.40;;